createdAt,value
2023-03-21T00:02:58.001Z,15.93
2023-03-21T00:04:00.489Z,16.25
2023-03-21T00:05:13.339Z,15.17
2023-03-21T00:06:17.850Z,15.12
2023-03-21T00:07:20.305Z,14.70
2023-03-21T00:08:25.279Z,15.13
2023-03-21T00:11:48.415Z,15.10
2023-03-21T00:12:55.455Z,14.28
2023-03-21T00:14:02.415Z,14.42
2023-03-21T00:15:10.132Z,14.58
2023-03-21T00:16:26.380Z,14.92
2023-03-21T00:17:33.809Z,13.90
2023-03-21T00:18:37.103Z,14.95
2023-03-21T00:19:41.306Z,13.95
2023-03-21T00:20:46.519Z,14.50
2023-03-21T00:22:06.549Z,14.43
2023-03-21T00:23:09.754Z,14.30
2023-03-21T00:24:13.034Z,14.22
2023-03-21T00:25:15.677Z,14.45
2023-03-21T00:26:18.292Z,14.78
2023-03-21T00:27:47.522Z,13.95
2023-03-21T00:28:44.032Z,14.35
2023-03-21T00:29:49.380Z,14.13
2023-03-21T00:31:00.034Z,14.35
2023-03-21T00:32:02.506Z,15.25
2023-03-21T00:33:19.663Z,14.15
2023-03-21T00:34:36.428Z,14.93
2023-03-21T00:35:58.751Z,14.33
2023-03-21T00:37:07.297Z,14.53
2023-03-21T00:38:10.873Z,14.13
2023-03-21T00:39:14.229Z,13.65
2023-03-21T00:40:26.668Z,13.43
2023-03-21T00:41:42.556Z,14.75
2023-03-21T00:42:45.813Z,13.55
2023-03-21T00:43:48.259Z,13.78
2023-03-21T00:44:50.757Z,14.30
2023-03-21T00:45:53.241Z,14.45
2023-03-21T00:47:06.513Z,14.20
2023-03-21T00:48:10.791Z,14.75
2023-03-21T00:49:13.324Z,13.23
2023-03-21T00:50:16.791Z,13.97
2023-03-21T00:51:26.586Z,13.85
2023-03-21T00:52:40.096Z,13.85
2023-03-21T00:53:43.223Z,13.77
2023-03-21T00:54:45.977Z,13.63
2023-03-21T00:55:48.524Z,14.78
2023-03-21T00:56:51.003Z,13.57
2023-03-21T00:58:01.444Z,13.58
2023-03-21T00:59:04.624Z,13.82
2023-03-21T01:00:10.511Z,13.98
2023-03-21T01:01:13.163Z,13.15
2023-03-21T01:02:22.710Z,14.10
2023-03-21T01:03:26.686Z,13.07
2023-03-21T01:04:29.260Z,13.37
2023-03-21T01:05:59.657Z,13.15
2023-03-21T01:07:02.238Z,13.18
2023-03-21T01:08:17.074Z,13.20
2023-03-21T01:09:26.595Z,13.73
2023-03-21T01:10:29.076Z,13.30
2023-03-21T01:11:32.125Z,13.68
2023-03-21T01:12:34.641Z,13.07
2023-03-21T01:13:44.078Z,13.32
2023-03-21T01:14:53.666Z,12.87
2023-03-21T01:15:57.023Z,13.57
2023-03-21T01:16:59.532Z,12.75
2023-03-21T01:18:02.185Z,12.92
2023-03-21T01:19:09.435Z,12.97
2023-03-21T01:20:14.629Z,13.27
2023-03-21T01:21:17.785Z,13.53
2023-03-21T01:22:21.116Z,13.23
2023-03-21T01:23:23.826Z,12.77
2023-03-21T01:24:26.442Z,12.40
2023-03-21T01:25:28.890Z,12.13
2023-03-21T01:26:32.109Z,12.72
2023-03-21T01:27:34.747Z,12.63
2023-03-21T01:28:38.609Z,13.27
2023-03-21T01:29:41.070Z,12.72
2023-03-21T01:30:48.051Z,12.92
2023-03-21T01:31:50.692Z,13.67
2023-03-21T01:32:53.422Z,12.95
2023-03-21T01:33:57.064Z,13.57
2023-03-21T01:34:59.516Z,12.57
2023-03-21T01:36:12.284Z,12.63
2023-03-21T01:37:17.845Z,13.12
2023-03-21T01:38:26.122Z,12.63
2023-03-21T01:39:28.846Z,12.53
2023-03-21T01:40:31.746Z,12.65
2023-03-21T01:41:45.064Z,12.97
2023-03-21T01:42:56.996Z,12.18
2023-03-21T01:43:59.712Z,12.50
2023-03-21T01:45:46.206Z,12.23
2023-03-21T01:47:09.210Z,12.73
2023-03-21T01:48:23.734Z,12.37
2023-03-21T01:49:40.973Z,12.70
2023-03-21T01:50:53.016Z,12.77
2023-03-21T01:52:23.515Z,12.25
2023-03-21T01:53:37.298Z,11.98
2023-03-21T01:54:43.211Z,11.80
2023-03-21T01:55:47.955Z,11.92
2023-03-21T01:57:22.125Z,12.22
2023-03-21T01:58:30.056Z,11.60
2023-03-21T01:59:40.822Z,11.70
2023-03-21T02:01:16.021Z,12.37
2023-03-21T02:02:58.242Z,12.32
2023-03-21T02:04:28.050Z,12.27
2023-03-21T02:06:09.020Z,11.20
2023-03-21T02:07:19.139Z,11.73
2023-03-21T02:08:38.665Z,12.18
2023-03-21T02:09:50.916Z,11.78
2023-03-21T02:10:57.762Z,11.60
2023-03-21T02:12:11.101Z,11.42
2023-03-21T02:13:14.194Z,11.87
2023-03-21T02:14:28.217Z,11.67
2023-03-21T02:15:39.137Z,11.87
2023-03-21T02:17:06.700Z,11.75
2023-03-21T02:18:24.260Z,11.18
2023-03-21T02:19:47.623Z,11.20
2023-03-21T02:21:30.795Z,11.42
2023-03-21T02:22:59.084Z,11.03
2023-03-21T02:24:30.098Z,11.63
2023-03-21T02:25:53.593Z,11.52
2023-03-21T02:27:11.853Z,10.68
2023-03-21T02:28:24.028Z,11.28
2023-03-21T02:29:29.531Z,11.58
2023-03-21T02:30:51.202Z,11.25
2023-03-21T02:32:31.433Z,10.80
2023-03-21T02:34:06.909Z,11.30
2023-03-21T02:35:50.414Z,10.63
2023-03-21T02:37:01.266Z,10.92
2023-03-21T02:38:17.554Z,10.17
2023-03-21T02:39:23.419Z,11.70
2023-03-21T02:40:41.491Z,11.03
2023-03-21T02:42:03.679Z,11.50
2023-03-21T02:43:23.479Z,10.82
2023-03-21T02:44:36.090Z,11.13
2023-03-21T02:45:46.505Z,10.63
2023-03-21T02:47:04.594Z,11.10
2023-03-21T02:48:27.666Z,10.40
2023-03-21T02:49:50.918Z,9.75
2023-03-21T02:50:59.116Z,10.10
2023-03-21T02:52:14.541Z,10.33
2023-03-21T02:53:25.979Z,11.08
2023-03-21T02:54:46.969Z,11.32
2023-03-21T02:55:53.517Z,10.82
2023-03-21T02:57:01.023Z,10.68
2023-03-21T02:58:13.236Z,10.63
2023-03-21T02:59:27.630Z,10.43
2023-03-21T03:00:34.693Z,10.42
2023-03-21T03:01:38.918Z,10.15
2023-03-21T03:02:41.671Z,10.67
2023-03-21T03:03:45.300Z,10.43
2023-03-21T03:04:47.845Z,10.37
2023-03-21T03:05:55.777Z,10.75
2023-03-21T03:07:07.514Z,9.88
2023-03-21T03:08:20.504Z,10.32
2023-03-21T03:09:35.075Z,9.75
2023-03-21T03:11:02.322Z,10.27
2023-03-21T03:12:44.348Z,10.95
2023-03-21T03:14:21.033Z,10.33
2023-03-21T03:15:34.553Z,10.38
2023-03-21T03:16:44.167Z,9.93
2023-03-21T03:17:50.925Z,10.02
2023-03-21T03:18:56.349Z,9.93
2023-03-21T03:20:20.206Z,10.00
2023-03-21T03:21:47.053Z,9.83
2023-03-21T03:23:14.911Z,9.83
2023-03-21T03:24:27.404Z,9.62
2023-03-21T03:25:46.178Z,9.92
2023-03-21T03:27:00.517Z,9.62
2023-03-21T03:28:07.616Z,9.93
2023-03-21T03:29:16.727Z,9.93
2023-03-21T03:30:20.559Z,9.73
2023-03-21T03:31:32.272Z,9.85
2023-03-21T03:32:54.049Z,10.27
2023-03-21T03:34:07.203Z,9.70
2023-03-21T03:35:18.586Z,10.18
2023-03-21T03:36:32.052Z,10.02
2023-03-21T03:37:41.464Z,9.60
2023-03-21T03:38:48.711Z,9.32
2023-03-21T03:40:11.721Z,10.13
2023-03-21T03:41:26.036Z,10.73
2023-03-21T03:42:42.097Z,9.05
2023-03-21T03:43:59.051Z,8.83
2023-03-21T03:45:07.516Z,9.35
2023-03-21T03:46:18.028Z,9.12
2023-03-21T03:47:56.465Z,9.55
2023-03-21T03:49:08.287Z,9.20
2023-03-21T03:50:41.525Z,9.97
2023-03-21T03:52:02.200Z,9.22
2023-03-21T03:53:19.024Z,9.30
2023-03-21T03:54:33.178Z,9.20
2023-03-21T03:55:38.840Z,9.35
2023-03-21T03:56:47.601Z,9.57
2023-03-21T03:57:50.224Z,9.45
2023-03-21T03:58:53.010Z,9.18
2023-03-21T04:00:01.475Z,9.78
2023-03-21T04:01:26.559Z,8.97
2023-03-21T04:02:30.270Z,9.10
2023-03-21T04:03:48.085Z,9.20
2023-03-21T04:04:53.426Z,9.13
2023-03-21T04:05:57.129Z,8.93
2023-03-21T04:06:59.929Z,9.25
2023-03-21T04:08:02.749Z,9.58
2023-03-21T04:09:20.444Z,9.32
2023-03-21T04:10:26.562Z,8.75
2023-03-21T04:11:29.803Z,8.90
2023-03-21T04:12:32.299Z,9.45
2023-03-21T04:13:55.151Z,9.07
2023-03-21T04:15:08.170Z,8.85
2023-03-21T04:16:14.413Z,8.78
2023-03-21T04:17:19.296Z,8.40
2023-03-21T04:18:23.799Z,8.98
2023-03-21T04:19:27.191Z,8.47
2023-03-21T04:20:36.498Z,8.70
2023-03-21T04:21:40.476Z,8.93
2023-03-21T04:22:43.898Z,8.78
2023-03-21T04:23:46.475Z,8.57
2023-03-21T04:24:48.997Z,8.43
2023-03-21T04:25:56.842Z,8.87
2023-03-21T04:27:09.912Z,9.12
2023-03-21T04:28:17.247Z,8.88
2023-03-21T04:29:29.885Z,8.67
2023-03-21T04:30:35.508Z,8.58
2023-03-21T04:31:43.097Z,9.35
2023-03-21T04:32:54.118Z,8.33
2023-03-21T04:34:09.987Z,8.75
2023-03-21T04:35:14.463Z,8.58
2023-03-21T04:36:25.227Z,9.12
2023-03-21T04:37:29.484Z,8.38
2023-03-21T04:38:33.940Z,8.10
2023-03-21T04:39:39.253Z,8.70
2023-03-21T04:40:41.780Z,9.02
2023-03-21T04:41:46.315Z,8.27
2023-03-21T04:42:49.068Z,8.38
2023-03-21T04:43:52.594Z,8.75
2023-03-21T04:44:56.183Z,8.88
2023-03-21T04:45:59.510Z,8.13
2023-03-21T04:47:02.313Z,8.70
2023-03-21T04:48:05.492Z,8.70
2023-03-21T04:49:08.272Z,8.17
2023-03-21T04:50:13.013Z,8.47
2023-03-21T04:51:17.053Z,8.60
2023-03-21T04:52:19.838Z,8.27
2023-03-21T04:53:22.928Z,8.30
2023-03-21T04:54:25.989Z,8.18
2023-03-21T04:55:31.688Z,8.70
2023-03-21T04:56:36.140Z,8.62
2023-03-21T04:57:39.529Z,8.35
2023-03-21T04:58:42.435Z,8.43
2023-03-21T04:59:44.961Z,7.80
2023-03-21T05:00:47.791Z,8.05
2023-03-21T05:01:50.956Z,8.85
2023-03-21T05:02:53.462Z,8.63
2023-03-21T05:03:59.573Z,9.13
2023-03-21T05:05:02.348Z,8.50
2023-03-21T05:06:09.895Z,7.50
2023-03-21T05:07:12.389Z,8.03
2023-03-21T05:08:16.329Z,8.23
2023-03-21T05:09:18.932Z,7.82
2023-03-21T05:10:21.534Z,8.32
2023-03-21T05:11:24.047Z,7.90
2023-03-21T05:12:26.817Z,8.28
2023-03-21T05:13:29.378Z,8.85
2023-03-21T05:14:31.915Z,8.68
2023-03-21T05:15:34.852Z,8.68
2023-03-21T05:16:48.570Z,8.75
2023-03-21T05:17:52.329Z,8.82
2023-03-21T05:18:55.510Z,8.10
2023-03-21T05:19:58.126Z,8.18
2023-03-21T05:21:00.715Z,8.42
2023-03-21T05:22:11.957Z,7.80
2023-03-21T05:23:18.507Z,8.37
2023-03-21T05:24:22.379Z,7.62
2023-03-21T05:25:34.693Z,7.82
2023-03-21T05:26:50.411Z,8.60
2023-03-21T05:27:54.498Z,8.32
2023-03-21T05:29:01.469Z,7.87
2023-03-21T05:30:09.593Z,7.82
2023-03-21T05:31:15.887Z,8.15
2023-03-21T05:32:19.544Z,7.65
2023-03-21T05:33:22.132Z,8.18
2023-03-21T05:34:25.617Z,8.47
2023-03-21T05:35:28.616Z,8.33
2023-03-21T05:36:36.254Z,8.53
2023-03-21T05:37:41.778Z,8.35
2023-03-21T05:38:46.514Z,7.82
2023-03-21T05:39:49.961Z,7.97
2023-03-21T05:40:58.902Z,8.32
2023-03-21T05:42:01.558Z,7.82
2023-03-21T05:43:04.128Z,7.95
2023-03-21T05:44:06.621Z,8.35
2023-03-21T05:45:10.236Z,7.95
2023-03-21T05:46:13.875Z,8.33
2023-03-21T05:47:18.517Z,8.42
2023-03-21T05:48:23.067Z,8.27
2023-03-21T05:49:45.012Z,8.28
2023-03-21T05:50:47.538Z,8.75
2023-03-21T05:51:54.292Z,7.92
2023-03-21T05:52:56.807Z,7.62
2023-03-21T05:53:59.297Z,7.70
2023-03-21T05:55:01.753Z,7.93
2023-03-21T05:56:04.853Z,7.92
2023-03-21T05:57:28.930Z,7.92
2023-03-21T05:58:37.843Z,7.93
2023-03-21T05:59:40.481Z,7.47
2023-03-21T06:00:43.485Z,7.10
2023-03-21T06:02:00.744Z,7.75
2023-03-21T06:03:03.340Z,7.55
2023-03-21T06:04:41.261Z,7.27
2023-03-21T06:05:43.821Z,7.70
2023-03-21T06:06:54.266Z,7.77
2023-03-21T06:07:58.469Z,7.65
2023-03-21T06:09:01.593Z,7.03
2023-03-21T06:10:06.564Z,7.60
2023-03-21T06:11:23.270Z,7.22
2023-03-21T06:12:28.053Z,7.38
2023-03-21T06:13:50.751Z,7.12
2023-03-21T06:14:53.616Z,7.18
2023-03-21T06:16:03.485Z,7.95
2023-03-21T06:17:08.434Z,8.07
2023-03-21T06:18:16.982Z,7.48
2023-03-21T06:19:39.736Z,7.82
2023-03-21T06:20:46.580Z,7.63
2023-03-21T06:21:49.313Z,7.60
2023-03-21T06:22:52.601Z,7.05
2023-03-21T06:23:55.113Z,6.93
2023-03-21T06:24:58.762Z,7.47
2023-03-21T06:26:01.270Z,6.87
2023-03-21T06:27:04.201Z,7.28
2023-03-21T06:28:17.687Z,7.22
2023-03-21T06:29:21.368Z,7.50
2023-03-21T06:30:27.614Z,7.52
2023-03-21T06:31:40.564Z,7.53
2023-03-21T06:32:44.041Z,7.40
2023-03-21T06:33:51.834Z,7.15
2023-03-21T06:34:55.120Z,7.75
2023-03-21T06:35:59.087Z,7.83
2023-03-21T06:37:02.091Z,7.80
2023-03-21T06:38:08.603Z,7.98
2023-03-21T06:39:11.238Z,8.00
2023-03-21T06:40:16.175Z,6.87
2023-03-21T06:41:19.018Z,7.18
2023-03-21T06:42:32.548Z,7.23
2023-03-21T06:43:42.013Z,7.88
2023-03-21T06:44:44.577Z,7.92
2023-03-21T06:45:50.323Z,7.53
2023-03-21T06:46:53.917Z,7.57
2023-03-21T06:47:57.365Z,7.85
2023-03-21T06:49:07.423Z,7.93
2023-03-21T06:50:11.198Z,8.10
2023-03-21T06:51:19.229Z,7.57
2023-03-21T06:52:35.795Z,7.55
2023-03-21T06:53:38.655Z,7.42
2023-03-21T06:54:51.283Z,7.45
2023-03-21T06:55:54.745Z,7.25
2023-03-21T06:56:57.275Z,7.25
2023-03-21T06:58:04.380Z,7.52
2023-03-21T06:59:07.007Z,7.02
2023-03-21T07:00:36.527Z,7.05
2023-03-21T07:01:39.515Z,6.90
2023-03-21T07:02:43.341Z,7.08
2023-03-21T07:03:57.557Z,6.83
2023-03-21T07:05:00.383Z,7.28
2023-03-21T07:06:11.854Z,7.37
2023-03-21T07:07:14.464Z,6.88
2023-03-21T07:08:17.577Z,6.53
2023-03-21T07:09:24.535Z,7.28
2023-03-21T07:10:28.890Z,7.33
2023-03-21T07:11:39.099Z,6.95
2023-03-21T07:12:42.144Z,6.38
2023-03-21T07:14:06.496Z,7.13
2023-03-21T07:15:09.530Z,6.88
2023-03-21T07:16:13.086Z,7.53
2023-03-21T07:17:15.547Z,6.98
2023-03-21T07:18:18.024Z,6.47
2023-03-21T07:19:20.648Z,7.37
2023-03-21T07:20:23.913Z,7.42
2023-03-21T07:21:26.514Z,8.02
2023-03-21T07:22:29.490Z,7.40
2023-03-21T07:23:31.975Z,7.50
2023-03-21T07:24:34.498Z,6.88
2023-03-21T07:25:37.478Z,7.23
2023-03-21T07:26:40.408Z,7.07
2023-03-21T07:27:43.079Z,6.95
2023-03-21T07:28:46.018Z,7.35
2023-03-21T07:29:50.434Z,7.95
2023-03-21T07:30:58.419Z,7.65
2023-03-21T07:32:01.558Z,7.40
2023-03-21T07:33:04.539Z,7.60
2023-03-21T07:34:07.137Z,7.63
2023-03-21T07:35:14.149Z,8.30
2023-03-21T07:36:17.351Z,8.07
2023-03-21T07:37:20.705Z,7.13
2023-03-21T07:38:24.047Z,7.50
2023-03-21T07:39:27.692Z,7.27
2023-03-21T07:40:31.115Z,7.40
2023-03-21T07:41:34.188Z,7.63
2023-03-21T07:42:50.870Z,7.60
2023-03-21T07:44:04.404Z,7.77
2023-03-21T07:45:10.376Z,7.58
2023-03-21T07:46:12.972Z,7.45
2023-03-21T07:47:15.565Z,7.47
2023-03-21T07:48:19.144Z,7.62
2023-03-21T07:49:21.745Z,7.47
2023-03-21T07:50:24.197Z,7.95
2023-03-21T07:51:26.806Z,6.88
2023-03-21T07:52:29.358Z,7.42
2023-03-21T07:53:31.832Z,7.73
2023-03-21T07:54:34.379Z,7.70
2023-03-21T07:55:37.086Z,7.45
2023-03-21T07:56:39.713Z,6.87
2023-03-21T07:57:42.195Z,7.15
2023-03-21T07:58:44.704Z,7.35
2023-03-21T07:59:47.182Z,7.10
2023-03-21T08:00:49.873Z,7.20
2023-03-21T08:01:52.640Z,6.83
2023-03-21T08:02:58.780Z,6.73
2023-03-21T08:04:01.588Z,6.93
2023-03-21T08:05:04.255Z,6.88
2023-03-21T08:06:07.241Z,6.95
2023-03-21T08:07:10.502Z,7.60
2023-03-21T08:08:13.135Z,6.63
2023-03-21T08:09:15.655Z,7.18
2023-03-21T08:10:19.759Z,7.23
2023-03-21T08:11:22.590Z,7.05
2023-03-21T08:12:25.250Z,7.23
2023-03-21T08:13:27.828Z,7.02
2023-03-21T08:14:30.341Z,6.88
2023-03-21T08:15:32.853Z,6.83
2023-03-21T08:16:35.482Z,6.48
2023-03-21T08:17:38.154Z,6.78
2023-03-21T08:18:40.661Z,7.28
2023-03-21T08:19:43.172Z,6.82
2023-03-21T08:20:45.761Z,6.48
2023-03-21T08:21:49.695Z,6.47
2023-03-21T08:22:52.354Z,6.80
2023-03-21T08:23:54.850Z,6.18
2023-03-21T08:24:57.306Z,6.80
2023-03-21T08:25:59.942Z,6.62
2023-03-21T08:27:02.519Z,6.02
2023-03-21T08:28:05.250Z,5.57
2023-03-21T08:29:07.826Z,6.07
2023-03-21T08:30:12.381Z,6.23
2023-03-21T08:31:15.380Z,6.13
2023-03-21T08:32:19.375Z,6.03
2023-03-21T08:33:22.901Z,5.45
2023-03-21T08:34:26.470Z,5.70
2023-03-21T08:35:29.856Z,5.72
2023-03-21T08:36:32.713Z,6.28
2023-03-21T08:37:35.234Z,6.32
2023-03-21T08:38:37.748Z,5.83
2023-03-21T08:39:40.283Z,5.90
2023-03-21T08:40:43.101Z,6.08
2023-03-21T08:41:45.562Z,5.37
2023-03-21T08:42:48.363Z,5.60
2023-03-21T08:43:50.906Z,5.50
2023-03-21T08:44:53.413Z,6.13
2023-03-21T08:45:56.753Z,5.98
2023-03-21T08:46:59.263Z,6.43
2023-03-21T08:48:01.921Z,5.70
2023-03-21T08:49:04.385Z,6.12
2023-03-21T08:50:08.893Z,6.32
2023-03-21T08:51:11.380Z,5.75
2023-03-21T08:52:13.842Z,5.92
2023-03-21T08:53:16.305Z,5.63
2023-03-21T08:54:20.708Z,6.23
2023-03-21T08:55:23.211Z,6.42
2023-03-21T08:56:25.851Z,6.02
2023-03-21T08:57:29.143Z,6.47
2023-03-21T08:58:32.011Z,6.30
2023-03-21T08:59:34.766Z,6.45
2023-03-21T09:00:37.293Z,6.35
2023-03-21T09:01:39.830Z,6.70
2023-03-21T09:02:42.859Z,6.67
2023-03-21T09:03:45.510Z,6.70
2023-03-21T09:04:48.285Z,6.58
2023-03-21T09:05:54.296Z,6.35
2023-03-21T09:06:57.325Z,6.33
2023-03-21T09:08:01.626Z,6.45
2023-03-21T09:09:07.522Z,7.57
2023-03-21T09:10:21.438Z,8.13
2023-03-21T09:11:24.220Z,8.62
2023-03-21T09:12:26.728Z,9.12
2023-03-21T09:13:29.326Z,10.08
2023-03-21T09:14:32.105Z,9.63
2023-03-21T09:15:35.423Z,9.93
2023-03-21T09:16:38.304Z,10.62
2023-03-21T09:17:44.119Z,10.63
2023-03-21T09:18:50.536Z,10.32
2023-03-21T09:19:53.535Z,10.87
2023-03-21T09:20:56.540Z,10.55
2023-03-21T09:21:59.805Z,10.90
2023-03-21T09:23:02.687Z,11.45
2023-03-21T09:24:05.677Z,11.10
2023-03-21T09:25:08.451Z,11.82
2023-03-21T09:26:11.363Z,11.40
2023-03-21T09:27:15.785Z,11.37
2023-03-21T09:28:18.309Z,11.05
2023-03-21T09:29:21.527Z,11.02
2023-03-21T09:30:26.230Z,11.40
2023-03-21T09:31:29.283Z,11.20
2023-03-21T09:32:31.855Z,12.07
2023-03-21T09:33:35.430Z,11.38
2023-03-21T09:34:41.147Z,10.87
2023-03-21T09:35:43.705Z,10.85
2023-03-21T09:36:48.448Z,10.23
2023-03-21T09:37:51.014Z,10.23
2023-03-21T09:38:54.797Z,10.85
2023-03-21T09:39:58.321Z,10.78
2023-03-21T09:41:30.147Z,10.37
2023-03-21T09:42:51.401Z,10.00
2023-03-21T09:43:56.837Z,10.05
2023-03-21T09:45:16.571Z,10.30
2023-03-21T09:46:39.606Z,9.40
2023-03-21T09:47:53.190Z,9.58
2023-03-21T09:49:07.844Z,8.92
2023-03-21T09:50:17.272Z,9.00
2023-03-21T09:51:21.446Z,9.75
2023-03-21T09:52:29.644Z,8.90
2023-03-21T09:53:39.012Z,9.72
2023-03-21T09:54:45.277Z,9.20
2023-03-21T09:55:47.913Z,9.15
2023-03-21T09:56:56.395Z,8.65
2023-03-21T09:58:05.067Z,7.68
2023-03-21T09:59:19.569Z,7.27
2023-03-21T10:00:29.893Z,8.28
2023-03-21T10:01:34.414Z,7.92
2023-03-21T10:02:47.205Z,8.12
2023-03-21T10:03:54.459Z,8.30
2023-03-21T10:04:58.092Z,8.08
2023-03-21T10:06:08.470Z,8.28
2023-03-21T10:07:18.137Z,8.27
2023-03-21T10:08:27.817Z,7.83
2023-03-21T10:09:32.647Z,6.95
2023-03-21T10:10:41.944Z,6.68
2023-03-21T10:11:50.415Z,7.38
2023-03-21T10:12:54.511Z,6.80
2023-03-21T10:14:11.500Z,6.12
2023-03-21T10:15:21.049Z,5.63
2023-03-21T10:16:29.623Z,5.65
2023-03-21T10:17:44.729Z,6.30
2023-03-21T10:18:49.873Z,6.72
2023-03-21T10:20:15.786Z,6.72
2023-03-21T10:21:56.523Z,6.52
2023-03-21T10:22:55.568Z,6.68
2023-03-21T10:24:00.473Z,6.48
2023-03-21T10:25:04.734Z,6.17
2023-03-21T10:26:08.063Z,5.90
2023-03-21T10:27:13.285Z,6.05
2023-03-21T10:28:20.874Z,6.30
2023-03-21T10:29:53.185Z,5.83
2023-03-21T10:30:59.382Z,7.08
2023-03-21T10:32:03.017Z,5.58
2023-03-21T10:33:09.646Z,6.85
2023-03-21T10:34:33.117Z,7.05
2023-03-21T10:35:40.047Z,7.12
2023-03-21T10:36:43.084Z,6.55
2023-03-21T10:37:46.501Z,5.43
2023-03-21T10:39:07.993Z,4.88
2023-03-21T10:40:16.802Z,4.58
2023-03-21T10:41:21.142Z,5.62
2023-03-21T10:42:28.439Z,5.98
2023-03-21T10:43:34.405Z,5.35
2023-03-21T10:44:37.393Z,5.13
2023-03-21T10:45:40.086Z,5.27
2023-03-21T10:46:55.119Z,5.63
2023-03-21T10:47:58.363Z,5.42
2023-03-21T10:49:01.725Z,5.25
2023-03-21T10:50:12.936Z,5.02
2023-03-21T10:51:20.649Z,5.25
2023-03-21T10:52:28.632Z,6.13
2023-03-21T10:53:35.681Z,6.12
2023-03-21T10:54:38.288Z,5.32
2023-03-21T10:55:42.572Z,5.35
2023-03-21T10:56:58.913Z,4.57
2023-03-21T10:58:08.606Z,4.23
2023-03-21T10:59:20.390Z,3.98
2023-03-21T11:00:29.167Z,4.08
2023-03-21T11:01:52.816Z,3.73
2023-03-21T11:02:57.368Z,3.95
2023-03-21T11:04:06.708Z,4.22
2023-03-21T11:05:23.052Z,5.22
2023-03-21T11:06:30.682Z,5.58
2023-03-21T11:07:35.681Z,5.40
2023-03-21T11:09:00.113Z,4.52
2023-03-21T11:10:20.019Z,4.27
2023-03-21T11:11:35.662Z,4.10
2023-03-21T11:12:40.879Z,4.12
2023-03-21T11:13:45.107Z,4.67
2023-03-21T11:14:51.117Z,4.98
2023-03-21T11:15:59.257Z,4.78
2023-03-21T11:17:01.945Z,5.28
2023-03-21T11:18:25.956Z,4.97
2023-03-21T11:19:35.488Z,5.10
2023-03-21T11:21:03.372Z,5.17
2023-03-21T11:22:08.200Z,5.25
2023-03-21T11:23:13.394Z,4.92
2023-03-21T11:24:19.832Z,5.50
2023-03-21T11:25:42.006Z,5.08
2023-03-21T11:26:48.134Z,4.98
2023-03-21T11:27:53.919Z,4.77
2023-03-21T11:28:57.496Z,4.15
2023-03-21T11:30:02.879Z,4.62
2023-03-21T11:31:09.177Z,4.23
2023-03-21T11:32:26.088Z,3.97
2023-03-21T11:33:36.653Z,5.57
2023-03-21T11:34:50.728Z,5.33
2023-03-21T11:36:02.300Z,6.17
2023-03-21T11:37:04.871Z,7.02
2023-03-21T11:38:26.551Z,6.50
2023-03-21T11:39:39.903Z,6.75
2023-03-21T11:40:54.712Z,6.77
2023-03-21T11:41:57.186Z,6.42
2023-03-21T11:43:24.227Z,6.13
2023-03-21T11:44:33.890Z,6.43
2023-03-21T11:45:38.755Z,7.08
2023-03-21T11:46:41.511Z,7.00
2023-03-21T11:47:44.609Z,6.52
2023-03-21T11:48:49.036Z,6.78
2023-03-21T11:49:58.380Z,6.70
2023-03-21T11:51:26.781Z,6.60
2023-03-21T11:52:41.345Z,6.63
2023-03-21T11:53:55.863Z,6.52
2023-03-21T11:55:29.998Z,6.75
2023-03-21T11:56:39.524Z,6.47
2023-03-21T11:58:18.900Z,6.98
2023-03-21T11:59:27.322Z,6.85
2023-03-21T12:00:41.834Z,6.52
2023-03-21T12:02:18.061Z,7.02
2023-03-21T12:03:45.171Z,6.38
2023-03-21T12:05:20.154Z,6.17
2023-03-21T12:06:40.979Z,6.37
2023-03-21T12:08:01.262Z,6.38
2023-03-21T12:09:41.659Z,6.85
2023-03-21T12:11:08.118Z,6.25
2023-03-21T12:12:38.801Z,6.52
2023-03-21T12:13:56.916Z,5.78
2023-03-21T12:14:59.471Z,6.02
2023-03-21T12:16:26.939Z,6.18
2023-03-21T12:18:06.637Z,6.10
2023-03-21T12:19:46.712Z,6.55
2023-03-21T12:21:06.314Z,6.23
2023-03-21T12:22:20.648Z,6.40
2023-03-21T12:23:38.131Z,6.17
2023-03-21T12:24:54.080Z,5.87
2023-03-21T12:26:39.542Z,6.02
2023-03-21T12:27:44.812Z,6.25
2023-03-21T12:29:03.692Z,6.25
2023-03-21T12:30:18.687Z,5.98
2023-03-21T12:31:25.146Z,6.15
2023-03-21T12:32:46.212Z,5.70
2023-03-21T12:34:00.709Z,6.28
2023-03-21T12:35:03.150Z,6.03
2023-03-21T12:36:36.381Z,5.73
2023-03-21T12:38:06.786Z,5.90
2023-03-21T12:39:36.598Z,6.12
2023-03-21T12:40:48.154Z,6.58
2023-03-21T12:42:18.578Z,5.78
2023-03-21T12:43:32.219Z,5.52
2023-03-21T12:44:48.715Z,5.75
2023-03-21T12:46:00.996Z,6.20
2023-03-21T12:47:11.400Z,5.40
2023-03-21T12:48:33.928Z,5.42
2023-03-21T12:49:55.619Z,5.77
2023-03-21T12:51:03.940Z,5.72
2023-03-21T12:52:10.696Z,5.38
2023-03-21T12:53:59.232Z,5.53
2023-03-21T12:55:17.988Z,5.73
2023-03-21T12:56:27.845Z,5.97
2023-03-21T12:57:47.739Z,5.57
2023-03-21T12:59:03.591Z,5.85
2023-03-21T13:00:23.951Z,5.82
2023-03-21T13:01:29.908Z,5.50
2023-03-21T13:02:37.748Z,5.95
2023-03-21T13:03:51.564Z,5.28
2023-03-21T13:05:14.147Z,5.20
2023-03-21T13:06:21.224Z,4.95
2023-03-21T13:07:26.782Z,5.47
2023-03-21T13:08:35.644Z,5.18
2023-03-21T13:09:40.730Z,5.60
2023-03-21T13:10:45.448Z,5.75
2023-03-21T13:11:52.331Z,5.42
2023-03-21T13:13:27.929Z,5.68
2023-03-21T13:14:42.431Z,5.02
2023-03-21T13:15:52.746Z,5.13
2023-03-21T13:17:24.594Z,5.45
2023-03-21T13:18:35.479Z,5.52
2023-03-21T13:19:51.280Z,5.30
2023-03-21T13:20:57.615Z,5.35
2023-03-21T13:22:05.961Z,4.92
2023-03-21T13:23:08.803Z,5.23
2023-03-21T13:24:17.471Z,5.37
2023-03-21T13:25:23.556Z,5.30
2023-03-21T13:26:36.613Z,4.83
2023-03-21T13:27:42.169Z,5.48
2023-03-21T13:28:48.548Z,5.08
2023-03-21T13:29:54.326Z,5.02
2023-03-21T13:31:26.999Z,5.22
2023-03-21T13:32:33.624Z,4.87
2023-03-21T13:33:37.601Z,5.22
2023-03-21T13:34:40.754Z,5.20
2023-03-21T13:35:45.874Z,5.25
2023-03-21T13:36:51.101Z,5.42
2023-03-21T13:37:58.161Z,5.50
2023-03-21T13:39:05.629Z,4.83
2023-03-21T13:40:22.307Z,4.93
2023-03-21T13:41:47.289Z,4.92
2023-03-21T13:43:03.720Z,4.70
2023-03-21T13:44:09.867Z,5.13
2023-03-21T13:45:25.222Z,5.05
2023-03-21T13:46:35.883Z,4.90
2023-03-21T13:47:56.594Z,4.77
2023-03-21T13:49:14.518Z,5.05
2023-03-21T13:50:19.994Z,4.87
2023-03-21T13:51:28.404Z,4.98
2023-03-21T13:52:30.963Z,5.17
2023-03-21T13:53:37.467Z,5.05
2023-03-21T13:54:51.779Z,4.80
2023-03-21T13:56:09.823Z,5.32
2023-03-21T13:57:27.508Z,4.57
2023-03-21T13:58:39.225Z,4.88
2023-03-21T13:59:44.887Z,4.65
2023-03-21T14:01:24.604Z,5.05
2023-03-21T14:02:33.922Z,5.07
2023-03-21T14:03:36.533Z,4.67
2023-03-21T14:05:03.627Z,4.53
2023-03-21T14:06:09.068Z,4.97
2023-03-21T14:07:20.096Z,4.73
2023-03-21T14:08:36.732Z,4.55
2023-03-21T14:09:47.670Z,4.97
2023-03-21T14:10:57.907Z,4.53
2023-03-21T14:12:07.441Z,4.38
2023-03-21T14:13:19.122Z,4.65
2023-03-21T14:14:26.562Z,5.02
2023-03-21T14:15:53.325Z,4.12
2023-03-21T14:16:58.041Z,4.17
2023-03-21T14:18:15.862Z,4.57
2023-03-21T14:19:32.646Z,4.37
2023-03-21T14:20:38.834Z,4.43
2023-03-21T14:21:50.273Z,4.28
2023-03-21T14:22:53.212Z,4.47
2023-03-21T14:24:00.515Z,4.55
2023-03-21T14:25:03.956Z,4.32
2023-03-21T14:26:06.576Z,4.45
2023-03-21T14:27:09.183Z,4.20
2023-03-21T14:28:21.111Z,4.47
2023-03-21T14:29:31.767Z,4.12
2023-03-21T14:30:39.974Z,4.67
2023-03-21T14:31:45.642Z,4.38
2023-03-21T14:32:48.319Z,3.90
2023-03-21T14:33:59.196Z,4.67
2023-03-21T14:35:02.815Z,4.38
2023-03-21T14:36:16.715Z,4.38
2023-03-21T14:37:37.320Z,4.37
2023-03-21T14:38:40.749Z,4.08
2023-03-21T14:39:43.259Z,4.33
2023-03-21T14:40:51.984Z,4.50
2023-03-21T14:41:57.352Z,4.35
2023-03-21T14:43:05.247Z,4.33
2023-03-21T14:44:27.693Z,4.70
2023-03-21T14:45:33.422Z,4.43
2023-03-21T14:46:35.989Z,3.78
2023-03-21T14:47:41.721Z,4.25
2023-03-21T14:48:44.210Z,4.03
2023-03-21T14:49:49.470Z,4.40
2023-03-21T14:50:55.149Z,4.65
2023-03-21T14:52:01.341Z,4.43
2023-03-21T14:53:04.079Z,4.65
2023-03-21T14:54:06.705Z,4.47
2023-03-21T14:55:16.587Z,4.05
2023-03-21T14:56:25.539Z,4.33
2023-03-21T14:57:32.749Z,4.55
2023-03-21T14:58:40.449Z,4.23
2023-03-21T14:59:42.985Z,3.95
2023-03-21T15:00:50.269Z,3.63
2023-03-21T15:01:54.750Z,3.22
2023-03-21T15:03:00.978Z,3.42
2023-03-21T15:04:06.704Z,2.82
2023-03-21T15:05:32.418Z,2.72
2023-03-21T15:06:49.219Z,2.87
2023-03-21T15:08:07.690Z,3.07
2023-03-21T15:09:16.637Z,2.48
2023-03-21T15:10:19.377Z,2.67
2023-03-21T15:11:34.270Z,2.80
2023-03-21T15:12:36.761Z,3.08
2023-03-21T15:13:52.903Z,3.15
2023-03-21T15:14:56.352Z,3.55
2023-03-21T15:16:00.952Z,3.68
2023-03-21T15:17:06.020Z,3.67
2023-03-21T15:18:13.253Z,3.85
2023-03-21T15:19:19.718Z,3.63
2023-03-21T15:20:28.573Z,4.03
2023-03-21T15:21:48.294Z,4.73